createdAt,value
2019-03-01T00:02:26.197Z,84.58
2019-03-01T00:05:12.931Z,84.38
2019-03-01T00:08:09.386Z,84.49
2019-03-01T00:10:54.035Z,84.86
2019-03-01T00:13:59.623Z,84.56
2019-03-01T00:17:10.583Z,84.11
2019-03-01T00:20:26.613Z,84.24
2019-03-01T00:23:16.215Z,84.93
2019-03-01T00:26:13.405Z,85.54
2019-03-01T00:29:06.915Z,85.50
2019-03-01T00:32:16.802Z,85.21
2019-03-01T00:35:14.888Z,85.23
2019-03-01T00:38:35.405Z,84.87
2019-03-01T00:41:27.210Z,84.44
2019-03-01T00:44:06.660Z,84.47
2019-03-01T00:46:36.807Z,83.98
2019-03-01T00:49:07.629Z,84.58
2019-03-01T00:51:37.181Z,84.13
2019-03-01T00:54:08.025Z,84.51
2019-03-01T00:56:37.547Z,83.86
2019-03-01T00:59:08.523Z,84.38
2019-03-01T01:01:38.362Z,83.85
2019-03-01T01:04:08.541Z,83.83
2019-03-01T01:06:38.650Z,84.02
2019-03-01T01:09:08.207Z,84.17
2019-03-01T01:11:37.873Z,83.55
2019-03-01T01:14:07.327Z,83.46
2019-03-01T01:16:36.978Z,83.67
2019-03-01T01:19:07.729Z,83.74
2019-03-01T01:21:38.307Z,83.62
2019-03-01T01:24:08.898Z,83.53
2019-03-01T01:26:39.330Z,83.58
2019-03-01T01:29:09.229Z,84.03
2019-03-01T01:31:38.877Z,83.28
2019-03-01T01:34:08.776Z,83.20
2019-03-01T01:36:37.892Z,83.43
2019-03-01T01:39:09.023Z,83.26
2019-03-01T01:41:38.243Z,84.19
2019-03-01T01:44:08.359Z,83.87
2019-03-01T01:46:38.122Z,84.96
2019-03-01T01:49:07.467Z,84.12
2019-03-01T01:51:37.572Z,84.29
2019-03-01T01:54:07.557Z,84.77
2019-03-01T01:56:37.400Z,84.25
2019-03-01T01:59:07.190Z,83.85
2019-03-01T02:01:37.076Z,83.46
2019-03-01T02:04:06.996Z,83.71
2019-03-01T02:06:36.738Z,83.60
2019-03-01T02:09:23.786Z,83.63
2019-03-01T02:11:53.075Z,83.66
2019-03-01T02:14:22.372Z,83.58
2019-03-01T02:16:52.082Z,83.58
2019-03-01T02:19:22.116Z,83.14
2019-03-01T02:21:51.349Z,83.71
2019-03-01T02:24:20.913Z,83.10
2019-03-01T02:26:49.847Z,83.39
2019-03-01T02:29:18.724Z,83.52
2019-03-01T02:31:55.992Z,84.12
2019-03-01T02:34:25.166Z,83.08
2019-03-01T02:36:53.985Z,83.33
2019-03-01T02:39:22.772Z,82.62
2019-03-01T02:41:51.875Z,82.99
2019-03-01T02:44:20.689Z,82.96
2019-03-01T02:46:49.512Z,83.18
2019-03-01T02:49:18.440Z,83.11
2019-03-01T02:51:47.266Z,83.36
2019-03-01T02:54:16.083Z,83.11
2019-03-01T02:56:44.901Z,83.36
2019-03-01T02:59:13.689Z,83.41
2019-03-01T03:01:42.584Z,83.31
2019-03-01T03:04:11.413Z,83.61
2019-03-01T03:07:00.777Z,83.41
2019-03-01T03:09:29.593Z,83.45
2019-03-01T03:11:58.416Z,83.72
2019-03-01T03:14:27.236Z,83.66
2019-03-01T03:16:56.041Z,84.00
2019-03-01T03:19:24.945Z,84.04
2019-03-01T03:21:53.771Z,84.35
2019-03-01T03:24:22.901Z,84.95
2019-03-01T03:26:51.717Z,84.40
2019-03-01T03:29:20.499Z,84.18
2019-03-01T03:31:49.322Z,83.58
2019-03-01T03:34:18.217Z,83.52
2019-03-01T03:36:46.981Z,83.77
2019-03-01T03:39:15.802Z,83.70
2019-03-01T03:41:44.666Z,84.09
2019-03-01T03:44:13.457Z,83.16
2019-03-01T03:46:42.283Z,82.99
2019-03-01T03:49:11.079Z,83.36
2019-03-01T03:51:39.887Z,83.00
2019-03-01T03:54:08.735Z,82.82
2019-03-01T03:56:37.654Z,82.83
2019-03-01T03:59:06.537Z,82.95
2019-03-01T04:01:35.502Z,82.80
2019-03-01T04:04:04.742Z,83.33
2019-03-01T04:06:33.519Z,82.92
2019-03-01T04:09:03.020Z,82.95
2019-03-01T04:11:31.813Z,82.76
2019-03-01T04:14:00.598Z,82.69
2019-03-01T04:16:29.417Z,82.65
2019-03-01T04:18:58.221Z,82.82
2019-03-01T04:21:27.114Z,83.16
2019-03-01T04:23:55.951Z,82.79
2019-03-01T04:26:24.878Z,83.16
2019-03-01T04:28:53.666Z,83.19
2019-03-01T04:31:22.452Z,83.31
2019-03-01T04:33:51.290Z,83.41
2019-03-01T04:36:20.086Z,83.65
2019-03-01T04:38:48.897Z,83.86
2019-03-01T04:41:17.721Z,83.67
2019-03-01T04:43:46.506Z,83.47
2019-03-01T04:46:15.293Z,83.37
2019-03-01T04:48:44.135Z,83.44
2019-03-01T04:51:12.920Z,83.14
2019-03-01T04:53:41.709Z,83.00
2019-03-01T04:56:10.547Z,82.95
2019-03-01T04:58:39.357Z,82.80
2019-03-01T05:01:08.145Z,82.92
2019-03-01T05:03:37.038Z,82.99
2019-03-01T05:06:05.896Z,82.71
2019-03-01T05:08:34.681Z,82.92
2019-03-01T05:11:03.484Z,82.93
2019-03-01T05:13:32.299Z,83.03
2019-03-01T05:16:01.117Z,82.89
2019-03-01T05:18:29.915Z,83.17
2019-03-01T05:20:58.693Z,83.75
2019-03-01T05:23:27.500Z,83.28
2019-03-01T05:25:56.302Z,83.32
2019-03-01T05:28:25.129Z,83.15
2019-03-01T05:30:53.943Z,83.38
2019-03-01T05:33:22.741Z,82.94
2019-03-01T05:35:53.945Z,82.87
2019-03-01T05:38:22.744Z,82.73
2019-03-01T05:40:51.533Z,82.42
2019-03-01T05:43:20.351Z,82.87
2019-03-01T05:45:49.219Z,82.53
2019-03-01T05:48:18.153Z,82.70
2019-03-01T05:50:47.411Z,82.79
2019-03-01T05:53:16.200Z,82.68
2019-03-01T05:55:44.995Z,82.75
2019-03-01T05:58:37.961Z,82.59
2019-03-01T06:01:35.751Z,82.58
2019-03-01T06:04:20.623Z,82.67
2019-03-01T06:07:21.326Z,83.49
2019-03-01T06:10:04.653Z,83.44
2019-03-01T06:13:12.121Z,84.07
2019-03-01T06:16:08.006Z,83.77
2019-03-01T06:19:36.889Z,84.30
2019-03-01T06:22:32.499Z,84.27
2019-03-01T06:25:31.401Z,84.36
2019-03-01T06:28:34.433Z,84.35
2019-03-01T06:31:36.032Z,84.00
2019-03-01T06:34:37.316Z,83.59
2019-03-01T06:37:19.221Z,83.44
2019-03-01T06:40:39.508Z,83.58
2019-03-01T06:44:11.012Z,83.81
2019-03-01T06:46:59.129Z,83.44
2019-03-01T06:49:47.430Z,83.24
2019-03-01T06:52:17.970Z,83.04
2019-03-01T06:54:46.752Z,82.95
2019-03-01T06:57:15.581Z,82.53
2019-03-01T06:59:44.440Z,82.70
2019-03-01T07:02:16.402Z,82.50
2019-03-01T07:04:45.217Z,82.29
2019-03-01T07:07:13.995Z,82.01
2019-03-01T07:09:42.775Z,82.04
2019-03-01T07:12:21.288Z,81.80
2019-03-01T07:14:59.941Z,81.39
2019-03-01T07:17:29.052Z,81.28
2019-03-01T07:19:57.849Z,81.48
2019-03-01T07:22:26.656Z,81.35
2019-03-01T07:24:55.497Z,81.12
2019-03-01T07:27:24.331Z,81.50
2019-03-01T07:29:53.142Z,81.36
2019-03-01T07:32:21.932Z,81.49
2019-03-01T07:34:50.741Z,81.38
2019-03-01T07:37:21.262Z,81.06
2019-03-01T07:39:50.104Z,81.20
2019-03-01T07:42:19.237Z,80.45
2019-03-01T07:44:48.058Z,80.17
2019-03-01T07:47:16.867Z,79.93
2019-03-01T07:49:45.654Z,80.64
2019-03-01T07:52:14.475Z,80.78
2019-03-01T07:54:43.254Z,81.26
2019-03-01T07:57:14.755Z,81.59
2019-03-01T07:59:43.065Z,81.64
2019-03-01T08:02:11.853Z,81.17
2019-03-01T08:04:40.710Z,81.37
2019-03-01T08:07:09.571Z,81.22
2019-03-01T08:09:41.349Z,81.53
2019-03-01T08:12:08.889Z,82.07
2019-03-01T08:14:37.696Z,82.30
2019-03-01T08:17:06.757Z,82.43
2019-03-01T08:19:35.566Z,82.82
2019-03-01T08:22:04.343Z,82.89
2019-03-01T08:24:33.224Z,83.03
2019-03-01T08:27:02.031Z,83.44
2019-03-01T08:29:33.942Z,84.00
2019-03-01T08:32:01.350Z,84.47
2019-03-01T08:34:30.133Z,84.79
2019-03-01T08:36:59.013Z,84.21
2019-03-01T08:39:27.809Z,84.58
2019-03-01T08:42:00.287Z,84.63
2019-03-01T08:44:27.309Z,84.60
2019-03-01T08:46:56.115Z,84.51
2019-03-01T08:49:24.990Z,83.72
2019-03-01T08:51:53.803Z,83.17
2019-03-01T08:54:22.808Z,83.40
2019-03-01T08:56:53.123Z,82.40
2019-03-01T08:59:21.938Z,81.77
2019-03-01T09:01:50.767Z,81.16
2019-03-01T09:04:21.614Z,80.78
2019-03-01T09:06:50.714Z,80.97
2019-03-01T09:09:21.059Z,80.04
2019-03-01T09:11:51.577Z,79.17
2019-03-01T09:14:22.777Z,78.81
2019-03-01T09:16:51.570Z,77.98
2019-03-01T09:19:22.298Z,78.23
2019-03-01T09:21:51.541Z,77.82
2019-03-01T09:24:20.350Z,77.23
2019-03-01T09:26:51.649Z,77.77
2019-03-01T09:29:19.810Z,78.73
2019-03-01T09:31:50.657Z,78.36
2019-03-01T09:34:19.146Z,78.32
2019-03-01T09:36:54.940Z,77.26
2019-03-01T09:39:22.508Z,76.61
2019-03-01T09:41:51.468Z,76.50
2019-03-01T09:44:20.364Z,76.84
2019-03-01T09:46:49.254Z,76.70
2019-03-01T09:49:18.067Z,77.31
2019-03-01T09:51:49.902Z,77.94
2019-03-01T09:54:17.506Z,77.83
2019-03-01T09:56:46.300Z,78.62
2019-03-01T09:59:15.119Z,79.59
2019-03-01T10:01:43.991Z,81.78
2019-03-01T10:04:12.779Z,81.67
2019-03-01T10:06:41.588Z,83.07
2019-03-01T10:09:13.594Z,82.67
2019-03-01T10:11:42.476Z,84.07
2019-03-01T10:14:11.275Z,84.31
2019-03-01T10:16:40.087Z,84.41
2019-03-01T10:19:08.963Z,84.08
2019-03-01T10:21:37.848Z,83.52
2019-03-01T10:24:06.716Z,83.03
2019-03-01T10:26:35.573Z,83.13
2019-03-01T10:29:04.477Z,82.45
2019-03-01T10:31:33.298Z,83.03
2019-03-01T10:34:02.105Z,82.18
2019-03-01T10:36:30.998Z,81.72
2019-03-01T10:38:59.831Z,81.72
2019-03-01T10:41:28.646Z,80.80
2019-03-01T10:43:57.436Z,83.60
2019-03-01T10:46:26.251Z,83.83
2019-03-01T10:48:55.083Z,83.37
2019-03-01T10:51:23.899Z,83.21
2019-03-01T10:53:52.720Z,85.36
2019-03-01T10:56:22.013Z,85.22
2019-03-01T10:58:51.380Z,85.45
2019-03-01T11:01:20.270Z,85.95
2019-03-01T11:03:49.199Z,85.60
2019-03-01T11:06:18.113Z,85.98
2019-03-01T11:08:46.909Z,86.10
2019-03-01T11:11:15.853Z,87.05
2019-03-01T11:13:44.657Z,88.05
2019-03-01T11:16:13.598Z,88.45
2019-03-01T11:18:42.427Z,88.77
2019-03-01T11:21:11.216Z,89.13
2019-03-01T11:23:40.003Z,88.47
2019-03-01T11:26:08.924Z,88.24
2019-03-01T11:28:37.739Z,87.97
2019-03-01T11:31:06.552Z,88.01
2019-03-01T11:33:35.392Z,87.59
2019-03-01T11:36:05.675Z,86.24
2019-03-01T11:38:34.478Z,84.97
2019-03-01T11:41:03.540Z,85.42
2019-03-01T11:43:32.517Z,83.51
2019-03-01T11:46:01.413Z,83.48
2019-03-01T11:48:30.260Z,81.75
2019-03-01T11:50:59.141Z,81.12
2019-03-01T11:53:27.985Z,81.18
2019-03-01T11:55:56.860Z,81.39
2019-03-01T11:58:25.706Z,80.50
2019-03-01T12:00:54.571Z,78.68
2019-03-01T12:03:23.370Z,79.81
2019-03-01T12:05:52.273Z,78.51
2019-03-01T12:08:21.070Z,78.63
2019-03-01T12:10:50.013Z,80.12
2019-03-01T12:13:18.915Z,81.75
2019-03-01T12:15:47.787Z,80.82
2019-03-01T12:18:16.635Z,82.22
2019-03-01T12:20:45.412Z,81.76
2019-03-01T12:23:14.202Z,80.95
2019-03-01T12:25:43.013Z,81.25
2019-03-01T12:28:18.650Z,82.64
2019-03-01T12:30:47.641Z,83.34
2019-03-01T12:33:16.500Z,82.82
2019-03-01T12:35:45.323Z,83.05
2019-03-01T12:38:14.135Z,84.33
2019-03-01T12:40:43.251Z,85.05
2019-03-01T12:43:12.048Z,85.22
2019-03-01T12:45:40.840Z,85.75
2019-03-01T12:48:09.684Z,86.56
2019-03-01T12:50:38.635Z,86.87
2019-03-01T12:53:07.461Z,86.59
2019-03-01T12:55:36.325Z,86.34
2019-03-01T12:58:05.118Z,87.21
2019-03-01T13:00:34.115Z,87.46
2019-03-01T13:03:05.343Z,87.20
2019-03-01T13:05:33.498Z,87.59
2019-03-01T13:08:02.395Z,87.19
2019-03-01T13:10:31.306Z,86.36
2019-03-01T13:13:02.203Z,85.03
2019-03-01T13:15:30.821Z,84.73
2019-03-01T13:17:59.602Z,84.36
2019-03-01T13:20:29.909Z,83.72
2019-03-01T13:23:04.646Z,84.85
2019-03-01T13:25:33.299Z,84.02
2019-03-01T13:28:02.118Z,83.52
2019-03-01T13:30:32.706Z,84.67
2019-03-01T13:33:02.246Z,83.90
2019-03-01T13:35:32.374Z,84.10
2019-03-01T13:38:01.261Z,83.37
2019-03-01T13:40:30.123Z,84.10
2019-03-01T13:42:58.937Z,84.16
2019-03-01T13:45:27.872Z,83.92
2019-03-01T13:47:56.721Z,84.30
2019-03-01T13:50:25.516Z,82.62
2019-03-01T13:52:54.475Z,82.12
2019-03-01T13:55:23.869Z,82.52
2019-03-01T13:57:52.864Z,82.82
2019-03-01T14:00:21.843Z,82.47
2019-03-01T14:02:51.094Z,82.72
2019-03-01T14:05:20.166Z,83.13
2019-03-01T14:07:55.134Z,83.67
2019-03-01T14:10:20.457Z,84.29
2019-03-01T14:12:49.319Z,85.00
2019-03-01T14:15:18.322Z,85.72
2019-03-01T14:17:47.299Z,85.40
2019-03-01T14:20:20.323Z,85.05
2019-03-01T14:22:49.175Z,85.78
2019-03-01T14:25:18.851Z,86.19
2019-03-01T14:27:47.823Z,86.88
2019-03-01T14:30:18.847Z,88.12
2019-03-01T14:32:47.705Z,88.20
2019-03-01T14:35:16.561Z,88.04
2019-03-01T14:37:45.937Z,88.22
2019-03-01T14:40:19.151Z,87.84
2019-03-01T14:42:47.653Z,88.14
2019-03-01T14:45:21.905Z,87.94
2019-03-01T14:47:51.013Z,87.24
2019-03-01T14:50:21.343Z,87.37
2019-03-01T14:52:56.707Z,86.72
2019-03-01T14:55:27.129Z,86.67
2019-03-01T14:58:19.015Z,86.55
2019-03-01T15:01:26.671Z,86.31
2019-03-01T15:03:56.009Z,86.39
2019-03-01T15:06:24.797Z,86.54
2019-03-01T15:08:53.605Z,86.70
2019-03-01T15:11:23.108Z,87.14
2019-03-01T15:13:53.552Z,87.28
2019-03-01T15:16:22.414Z,87.30
2019-03-01T15:18:51.309Z,86.79
2019-03-01T15:21:20.309Z,86.70
2019-03-01T15:23:49.127Z,86.81
2019-03-01T15:26:17.910Z,86.67
2019-03-01T15:28:53.937Z,86.07
2019-03-01T15:31:19.529Z,85.44
2019-03-01T15:33:48.500Z,85.07
2019-03-01T15:36:17.928Z,84.84
2019-03-01T15:38:47.827Z,84.16
2019-03-01T15:41:16.793Z,83.82
2019-03-01T15:43:45.683Z,83.25
2019-03-01T15:46:15.432Z,83.60
2019-03-01T15:48:44.410Z,82.96
2019-03-01T15:51:13.241Z,83.54
2019-03-01T15:53:42.108Z,83.26
2019-03-01T15:56:11.277Z,82.94
2019-03-01T15:58:40.089Z,83.05
2019-03-01T16:01:11.903Z,83.55
2019-03-01T16:03:41.738Z,83.22
2019-03-01T16:06:13.930Z,83.39
2019-03-01T16:08:43.881Z,82.85
2019-03-01T16:11:12.705Z,82.82
2019-03-01T16:13:47.762Z,82.82
2019-03-01T16:16:13.742Z,81.81
2019-03-01T16:18:43.431Z,82.21
2019-03-01T16:21:12.407Z,82.01
2019-03-01T16:23:41.206Z,82.13
2019-03-01T16:26:10.234Z,82.36
2019-03-01T16:28:39.126Z,82.46
2019-03-01T16:31:08.010Z,82.91
2019-03-01T16:33:36.899Z,83.14
2019-03-01T16:36:10.696Z,83.46
2019-03-01T16:38:41.132Z,83.67
2019-03-01T16:41:10.162Z,83.54
2019-03-01T16:43:38.952Z,83.84
2019-03-01T16:46:07.780Z,83.77
2019-03-01T16:48:37.544Z,83.20
2019-03-01T16:51:06.344Z,82.99
2019-03-01T16:53:36.747Z,82.96
2019-03-01T16:56:05.771Z,82.55
2019-03-01T16:58:35.261Z,82.86
2019-03-01T17:01:04.570Z,82.87
2019-03-01T17:03:33.438Z,83.23
2019-03-01T17:06:02.224Z,82.69
2019-03-01T17:08:31.375Z,83.09
2019-03-01T17:11:02.509Z,83.18
2019-03-01T17:13:30.689Z,83.73
2019-03-01T17:15:59.577Z,84.32
2019-03-01T17:18:28.384Z,84.02
2019-03-01T17:20:57.239Z,84.44
2019-03-01T17:23:26.393Z,84.89
2019-03-01T17:25:55.183Z,84.70
2019-03-01T17:28:26.532Z,84.90
2019-03-01T17:30:54.545Z,84.58
2019-03-01T17:33:23.441Z,85.15
2019-03-01T17:35:52.226Z,85.11
2019-03-01T17:38:21.023Z,84.22
2019-03-01T17:40:50.227Z,83.38
2019-03-01T17:43:19.118Z,83.14
2019-03-01T17:45:47.896Z,82.14
2019-03-01T17:48:18.346Z,81.22
2019-03-01T17:50:47.298Z,81.55
2019-03-01T17:53:16.084Z,81.48
2019-03-01T17:55:44.867Z,80.82
2019-03-01T17:58:14.075Z,80.49
2019-03-01T18:00:43.250Z,80.63
2019-03-01T18:03:12.110Z,81.00
2019-03-01T18:05:41.536Z,79.37
2019-03-01T18:08:10.898Z,79.78
2019-03-01T18:10:39.687Z,79.53
2019-03-01T18:13:08.690Z,78.69
2019-03-01T18:15:37.772Z,78.66
2019-03-01T18:18:08.876Z,78.49
2019-03-01T18:20:38.626Z,79.27
2019-03-01T18:23:07.699Z,77.83
2019-03-01T18:25:36.856Z,78.73
2019-03-01T18:28:05.643Z,77.99
2019-03-01T18:30:34.611Z,78.33
2019-03-01T18:33:03.474Z,77.09
2019-03-01T18:35:32.263Z,77.65
2019-03-01T18:38:01.175Z,77.70
2019-03-01T18:40:29.978Z,77.72
2019-03-01T18:42:58.942Z,77.52
2019-03-01T18:45:27.851Z,78.19
2019-03-01T18:47:56.796Z,77.69
2019-03-01T18:50:30.916Z,78.34
2019-03-01T18:52:58.053Z,78.64
2019-03-01T18:55:26.847Z,78.64
2019-03-01T18:57:55.663Z,78.57
2019-03-01T19:00:32.490Z,78.06
2019-03-01T19:03:01.086Z,78.48
2019-03-01T19:05:31.916Z,78.83
2019-03-01T19:08:04.563Z,78.83
2019-03-01T19:10:31.563Z,78.41
2019-03-01T19:13:00.499Z,78.95
2019-03-01T19:15:29.391Z,77.94
2019-03-01T19:17:58.336Z,78.05
2019-03-01T19:20:27.629Z,77.84
2019-03-01T19:22:56.494Z,77.96
2019-03-01T19:25:26.543Z,77.59
2019-03-01T19:27:55.723Z,78.04
2019-03-01T19:30:24.751Z,77.87
2019-03-01T19:32:53.535Z,77.94
2019-03-01T19:35:28.340Z,77.63
2019-03-01T19:37:52.959Z,77.97
2019-03-01T19:40:21.902Z,78.00
2019-03-01T19:42:50.919Z,77.78
2019-03-01T19:45:19.861Z,77.87
2019-03-01T19:47:48.724Z,77.70
2019-03-01T19:50:21.744Z,77.86
2019-03-01T19:52:50.517Z,77.56
2019-03-01T19:55:19.638Z,77.64
2019-03-01T19:57:48.494Z,77.89
2019-03-01T20:00:19.298Z,77.48
2019-03-01T20:02:48.186Z,77.21
2019-03-01T20:05:19.117Z,77.79
2019-03-01T20:07:47.935Z,77.51
2019-03-01T20:10:17.108Z,76.53
2019-03-01T20:12:46.120Z,76.58
2019-03-01T20:15:20.624Z,76.11
2019-03-01T20:17:49.626Z,75.84
2019-03-01T20:20:19.527Z,76.13
2019-03-01T20:22:50.539Z,76.13
2019-03-01T20:25:19.094Z,76.30
2019-03-01T20:27:48.061Z,76.33
2019-03-01T20:30:19.075Z,76.68
2019-03-01T20:32:51.082Z,77.35
2019-03-01T20:35:18.634Z,77.30
2019-03-01T20:37:47.573Z,77.26
2019-03-01T20:40:16.480Z,77.97
2019-03-01T20:42:45.379Z,77.93
2019-03-01T20:45:17.021Z,78.45
2019-03-01T20:47:45.838Z,78.22
2019-03-01T20:50:15.727Z,78.11
2019-03-01T20:52:44.688Z,78.46
2019-03-01T20:55:13.644Z,78.21
2019-03-01T20:57:42.470Z,78.86
2019-03-01T21:00:13.288Z,78.42
2019-03-01T21:02:42.239Z,78.66
2019-03-01T21:05:11.578Z,78.92
2019-03-01T21:07:40.728Z,78.74
2019-03-01T21:10:16.064Z,78.23
2019-03-01T21:12:43.293Z,78.10
2019-03-01T21:15:12.308Z,78.12
2019-03-01T21:17:41.245Z,77.61
2019-03-01T21:20:11.457Z,77.99
2019-03-01T21:22:41.014Z,77.81
2019-03-01T21:25:11.700Z,77.86
2019-03-01T21:27:40.515Z,77.70
2019-03-01T21:30:20.671Z,76.83
2019-03-01T21:32:50.692Z,77.53
2019-03-01T21:35:20.060Z,77.61
2019-03-01T21:37:48.878Z,77.92
2019-03-01T21:40:17.792Z,77.34
2019-03-01T21:42:46.650Z,77.65
2019-03-01T21:45:17.877Z,77.58
2019-03-01T21:47:48.009Z,76.80
2019-03-01T21:50:17.816Z,77.31
2019-03-01T21:52:46.702Z,77.22
2019-03-01T21:55:15.833Z,75.21
2019-03-01T21:57:44.717Z,75.56
2019-03-01T22:00:16.139Z,76.05
2019-03-01T22:02:45.126Z,75.58
2019-03-01T22:05:14.467Z,75.45
2019-03-01T22:07:43.757Z,75.91
2019-03-01T22:10:12.928Z,75.73
2019-03-01T22:12:42.048Z,76.11
2019-03-01T22:15:14.115Z,75.90
2019-03-01T22:17:45.446Z,70.89
2019-03-01T22:20:13.958Z,71.34
2019-03-01T22:22:42.818Z,71.53
2019-03-01T22:25:11.947Z,71.59
2019-03-01T22:27:41.967Z,71.53
2019-03-01T22:30:13.489Z,70.72
2019-03-01T22:32:45.431Z,71.32
2019-03-01T22:35:13.331Z,70.40
2019-03-01T22:37:42.200Z,71.30
2019-03-01T22:40:11.408Z,71.00
2019-03-01T22:42:40.292Z,70.43
2019-03-01T22:45:13.595Z,70.34
2019-03-01T22:47:42.230Z,69.36
2019-03-01T22:50:12.306Z,70.09
2019-03-01T22:52:41.128Z,69.16
2019-03-01T22:55:12.650Z,69.58
2019-03-01T22:57:41.513Z,69.51
2019-03-01T23:00:19.558Z,69.91
2019-03-01T23:02:48.438Z,70.40
2019-03-01T23:05:17.219Z,69.05
2019-03-01T23:07:46.007Z,68.71
2019-03-01T23:10:14.905Z,67.94
2019-03-01T23:12:43.898Z,66.62
2019-03-01T23:15:12.754Z,67.40
2019-03-01T23:17:41.944Z,66.88
2019-03-01T23:20:10.826Z,65.93
2019-03-01T23:22:42.665Z,65.42
2019-03-01T23:25:10.779Z,66.53
2019-03-01T23:27:40.402Z,66.29
2019-03-01T23:30:09.399Z,65.65
2019-03-01T23:32:38.206Z,65.09
2019-03-01T23:35:07.226Z,66.26
2019-03-01T23:37:38.930Z,66.31
2019-03-01T23:40:06.876Z,67.10
2019-03-01T23:42:35.812Z,66.47
2019-03-01T23:45:05.849Z,66.48
2019-03-01T23:47:37.959Z,67.03
2019-03-01T23:50:05.722Z,67.58
2019-03-01T23:52:34.506Z,66.86
2019-03-01T23:55:03.298Z,66.93
2019-03-01T23:57:32.121Z,67.09
